Time;durP1;ratioP1;P1;durP2;ratioP2;P2;SDS_P1;SDS_P2;PMS_P1;PMS_P2;Temp;Humidity;BMP_temperature;BMP_pressure;BME280_temperature;BME280_humidity;BME280_pressure;Samples;Min_cycle;Max_cycle;Signal;HPM_P1;HPM_P2
2022/06/30 00:01:27;;;;;;;1.40;1.20;;;;;;;;;;4968354;28;20381;-84
2022/06/30 00:03:53;;;;;;;1.30;1.20;;;;;;;;;;4968549;28;20088;-84
2022/06/30 00:06:19;;;;;;;1.17;1.02;;;;;;;;;;4968762;28;20407;-84
2022/06/30 00:08:46;;;;;;;1.75;0.90;;;;;;;;;;4965709;28;20480;-84
2022/06/30 00:11:12;;;;;;;1.40;0.70;;;;;;;;;;4969346;28;20054;-83
2022/06/30 00:13:38;;;;;;;1.23;0.90;;;;;;;;;;4968097;28;20030;-83
2022/06/30 00:16:05;;;;;;;2.65;0.95;;;;;;;;;;4968415;28;20034;-83
2022/06/30 00:18:31;;;;;;;1.73;0.80;;;20.10;81.00;;;;;;4969652;28;20096;-83
2022/06/30 00:20:57;;;;;;;1.45;0.90;;;;;;;;;;4968522;28;20552;-84
2022/06/30 00:23:23;;;;;;;2.28;0.65;;;;;;;;;;4968268;28;20129;-83
2022/06/30 00:25:49;;;;;;;2.13;1.58;;;;;;;;;;4969326;28;20030;-83
2022/06/30 00:28:18;;;;;;;1.73;0.77;;;;;;;;;;4964597;28;20567;-84
2022/06/30 00:30:44;;;;;;;2.28;1.10;;;;;;;;;;4968771;28;20102;-83
2022/06/30 00:33:10;;;;;;;0.80;0.70;;;;;;;;;;4968421;28;20114;-83
2022/06/30 00:35:36;;;;;;;1.80;1.23;;;;;;;;;;4972149;28;20023;-83
2022/06/30 00:38:02;;;;;;;1.27;0.82;;;;;;;;;;4973140;28;20038;-84
2022/06/30 00:40:29;;;;;;;2.13;1.27;;;;;;;;;;4972158;28;20055;-83
2022/06/30 00:42:54;;;;;;;1.77;1.23;;;;;;;;;;4971712;28;20310;-83
2022/06/30 00:45:20;;;;;;;1.05;0.80;;;;;;;;;;4988180;28;20045;-83
2022/06/30 00:47:47;;;;;;;1.30;1.05;;;;;;;;;;4971765;28;20030;-83
2022/06/30 00:50:13;;;;;;;4.00;1.15;;;;;;;;;;4972141;28;20042;-83
2022/06/30 00:52:39;;;;;;;3.60;1.00;;;;;;;;;;4972686;28;20023;-83
2022/06/30 00:55:05;;;;;;;1.52;0.85;;;;;;;;;;4970166;28;20114;-83
2022/06/30 00:57:33;;;;;;;2.03;1.13;;;;;;;;;;4973055;28;20368;-85
2022/06/30 00:59:59;;;;;;;6.50;1.75;;;;;;;;;;4971771;28;20054;-83
2022/06/30 01:02:26;;;;;;;1.45;0.73;;;19.80;84.30;;;;;;4971792;28;20089;-83
2022/06/30 01:04:53;;;;;;;;;;;19.60;85.10;;;;;;4972913;28;20018;-83
2022/06/30 01:07:20;;;;;;;1.25;1.00;;;;;;;;;;4971699;28;19945;-83
2022/06/30 01:12:43;;;;;;;1.45;1.23;;;;;;;;;;4971865;28;19917;-84
2022/06/30 01:15:18;;;;;;;1.73;1.08;;;19.60;86.20;;;;;;4972173;28;20413;-82
2022/06/30 01:17:45;;;;;;;3.05;1.38;;;19.60;85.90;;;;;;4971343;28;20050;-83
2022/06/30 01:20:11;;;;;;;2.13;1.33;;;19.70;86.00;;;;;;4972055;28;20070;-83
2022/06/30 01:22:37;;;;;;;2.28;1.15;;;;;;;;;;4971826;28;20113;-84
2022/06/30 01:25:03;;;;;;;3.20;1.58;;;;;;;;;;4971225;28;20030;-84
2022/06/30 01:27:30;;;;;;;1.05;0.98;;;;;;;;;;4972334;28;20030;-83
2022/06/30 01:29:57;;;;;;;1.40;1.30;;;;;;;;;;4971309;28;20031;-84
2022/06/30 01:32:23;;;;;;;1.63;1.10;;;;;;;;;;4971332;28;20038;-84
2022/06/30 01:34:49;;;;;;;1.10;0.82;;;;;;;;;;4968662;28;20031;-83
2022/06/30 01:37:15;;;;;;;1.40;1.27;;;;;;;;;;4971147;28;20023;-83
2022/06/30 01:39:41;;;;;;;2.53;1.75;;;;;;;;;;4971890;28;20427;-83
2022/06/30 01:42:08;;;;;;;2.72;1.73;;;;;;;;;;4970610;28;20046;-83
2022/06/30 01:44:33;;;;;;;2.58;0.77;;;;;;;;;;4970788;28;20053;-84
2022/06/30 01:46:59;;;;;;;3.45;0.80;;;;;;;;;;4972209;28;20031;-84
2022/06/30 01:49:26;;;;;;;2.55;0.68;;;;;;;;;;4973301;28;20031;-83
2022/06/30 01:51:51;;;;;;;1.38;0.82;;;;;;;;;;4971356;28;20029;-83
2022/06/30 01:54:18;;;;;;;4.95;1.27;;;;;;;;;;4971944;28;20121;-82
2022/06/30 01:56:44;;;;;;;3.05;1.35;;;;;;;;;;4970676;28;20093;-83
2022/06/30 01:59:10;;;;;;;6.65;1.73;;;;;;;;;;4971141;28;20022;-83
2022/06/30 02:01:36;;;;;;;4.72;2.15;;;;;;;;;;4971365;28;20499;-83
2022/06/30 02:06:48;;;;;;;2.85;1.05;;;;;;;;;;4971063;28;20126;-83
2022/06/30 02:09:14;;;;;;;1.33;1.20;;;;;;;;;;4971568;28;20039;-84
2022/06/30 02:11:40;;;;;;;4.13;1.45;;;;;;;;;;4967069;28;20435;-83
2022/06/30 02:14:05;;;;;;;1.35;1.25;;;;;;;;;;4971361;28;20019;-83
2022/06/30 02:16:32;;;;;;;1.98;1.23;;;;;;;;;;4965045;28;20492;-82
2022/06/30 02:18:58;;;;;;;1.00;0.85;;;;;;;;;;4968078;28;20058;-83
2022/06/30 02:21:24;;;;;;;5.68;1.13;;;;;;;;;;4971403;28;20062;-83
2022/06/30 02:23:53;;;;;;;2.17;1.45;;;;;;;;;;4970090;28;20101;-83
2022/06/30 02:26:19;;;;;;;5.38;1.30;;;19.70;85.70;;;;;;4977287;28;20038;-83
2022/06/30 02:28:45;;;;;;;3.10;1.25;;;;;;;;;;4963839;28;20062;-84
2022/06/30 02:31:12;;;;;;;1.92;0.95;;;;;;;;;;4970498;28;20022;-83
2022/06/30 02:33:39;;;;;;;5.40;1.50;;;;;;;;;;4970574;28;20031;-84
2022/06/30 02:36:05;;;;;;;4.72;1.38;;;;;;;;;;4970329;28;20045;-84
2022/06/30 02:38:31;;;;;;;1.83;1.05;;;;;;;;;;4970020;28;20062;-84
2022/06/30 02:40:57;;;;;;;2.78;1.52;;;;;;;;;;4968862;28;20058;-83
2022/06/30 02:43:23;;;;;;;1.80;1.27;;;;;;;;;;4965425;28;20053;-84
2022/06/30 02:45:49;;;;;;;0.98;0.88;;;;;;;;;;4970134;28;20451;-83
2022/06/30 02:48:16;;;;;;;2.08;1.80;;;;;;;;;;4970537;28;20051;-84
2022/06/30 02:50:44;;;;;;;2.00;1.27;;;;;;;;;;4969625;28;20030;-84
2022/06/30 02:53:10;;;;;;;1.65;1.05;;;;;;;;;;4970326;28;20035;-86
2022/06/30 02:55:36;;;;;;;1.85;1.15;;;;;;;;;;4968978;28;20027;-84
2022/06/30 02:58:02;;;;;;;23.42;1.70;;;;;;;;;;4969154;28;20031;-83
2022/06/30 03:00:28;;;;;;;3.63;1.10;;;;;;;;;;4970822;28;20026;-83
2022/06/30 03:02:55;;;;;;;1.63;1.30;;;;;;;;;;4969567;28;20034;-83
2022/06/30 03:05:22;;;;;;;1.75;0.85;;;;;;;;;;4969497;28;20504;-83
2022/06/30 03:07:48;;;;;;;1.98;1.40;;;;;;;;;;4968899;28;20031;-83
2022/06/30 03:10:14;;;;;;;1.95;1.23;;;;;;;;;;4984468;28;20031;-83
2022/06/30 03:12:40;;;;;;;1.00;0.85;;;;;;;;;;4962776;28;20025;-83
2022/06/30 03:15:06;;;;;;;1.65;0.70;;;;;;;;;;4970152;28;20404;-84
2022/06/30 03:17:32;;;;;;;1.13;0.98;;;;;;;;;;4969492;28;20377;-83
2022/06/30 03:19:58;;;;;;;5.32;1.85;;;;;;;;;;4970397;28;20041;-83
2022/06/30 03:22:24;;;;;;;4.63;1.42;;;;;;;;;;4969049;28;20424;-84
2022/06/30 03:24:50;;;;;;;2.03;1.10;;;;;;;;;;4969482;28;20101;-85
2022/06/30 03:27:16;;;;;;;1.38;1.10;;;;;;;;;;4985106;28;20030;-82
2022/06/30 03:29:42;;;;;;;1.08;0.88;;;;;;;;;;4969208;28;20081;-84
2022/06/30 03:32:08;;;;;;;2.33;1.00;;;;;;;;;;4970542;28;20488;-84
2022/06/30 03:34:34;;;;;;;0.75;0.73;;;;;;;;;;4970052;28;20085;-84
2022/06/30 03:37:00;;;;;;;2.08;1.13;;;;;;;;;;4964920;28;20026;-84
2022/06/30 03:39:26;;;;;;;3.33;1.88;;;;;;;;;;4963043;28;20031;-83
2022/06/30 03:41:52;;;;;;;1.33;1.10;;;;;;;;;;4964699;28;20051;-85
2022/06/30 03:44:18;;;;;;;5.43;1.40;;;;;;;;;;4968670;28;20120;-83
2022/06/30 03:46:45;;;;;;;4.13;1.85;;;;;;;;;;4969859;28;20658;-83
2022/06/30 03:49:11;;;;;;;4.28;1.23;;;;;;;;;;4968824;28;20042;-84
2022/06/30 03:51:37;;;;;;;1.77;1.27;;;;;;;;;;4969793;28;20039;-84
2022/06/30 03:54:03;;;;;;;2.03;1.33;;;;;;;;;;4968493;28;20026;-84
2022/06/30 03:56:29;;;;;;;2.78;1.90;;;;;;;;;;4968701;28;20108;-84
2022/06/30 03:58:55;;;;;;;2.65;1.67;;;;;;;;;;4969977;28;20018;-83
2022/06/30 04:01:21;;;;;;;3.15;2.35;;;;;;;;;;4968540;28;20516;-84
2022/06/30 04:03:47;;;;;;;4.68;1.70;;;;;;;;;;4969387;28;20031;-84
2022/06/30 04:06:13;;;;;;;2.42;1.55;;;;;;;;;;4969287;28;20488;-84
2022/06/30 04:08:39;;;;;;;1.38;0.95;;;;;;;;;;4968305;28;20030;-83
2022/06/30 04:11:05;;;;;;;1.85;0.98;;;;;;;;;;4968325;28;20106;-85
2022/06/30 04:13:31;;;;;;;8.35;3.25;;;;;;;;;;4965494;28;20030;-84
2022/06/30 04:15:57;;;;;;;7.25;1.38;;;;;;;;;;4968980;28;20031;-83
2022/06/30 04:18:23;;;;;;;6.18;3.63;;;;;;;;;;4983349;28;20034;-83
2022/06/30 04:20:49;;;;;;;11.55;1.48;;;;;;;;;;4968306;28;20054;-83
2022/06/30 04:23:15;;;;;;;1.95;1.75;;;;;;;;;;4968299;28;20034;-84
2022/06/30 04:25:41;;;;;;;1.20;1.02;;;;;;;;;;4968536;28;20034;-84
2022/06/30 04:28:07;;;;;;;2.17;1.13;;;;;;;;;;4982784;28;20616;-84
2022/06/30 04:33:18;;;;;;;2.95;1.50;;;;;;;;;;4969674;28;20045;-84
2022/06/30 04:35:44;;;;;;;1.85;1.33;;;;;;;;;;4968469;28;20034;-83
2022/06/30 04:38:10;;;;;;;2.45;1.13;;;;;;;;;;4968845;28;20031;-82
2022/06/30 04:43:21;;;;;;;2.95;1.05;;;;;;;;;;4966239;28;20097;-83
2022/06/30 04:45:47;;;;;;;2.60;1.58;;;;;;;;;;4968690;28;20027;-82
2022/06/30 04:48:13;;;;;;;5.68;1.90;;;;;;;;;;4969188;28;20043;-83
2022/06/30 04:50:39;;;;;;;3.78;1.08;;;20.00;86.80;;;;;;4965326;28;20061;-84
2022/06/30 04:53:05;;;;;;;5.25;0.90;;;;;;;;;;4959166;28;20056;-85
2022/06/30 04:55:31;;;;;;;2.40;1.42;;;;;;;;;;4966416;28;20023;-85
2022/06/30 04:57:57;;;;;;;1.65;1.00;;;;;;;;;;4967127;28;20042;-83
2022/06/30 05:00:23;;;;;;;3.83;1.25;;;;;;;;;;4968144;28;20023;-84
2022/06/30 05:02:49;;;;;;;3.72;1.20;;;;;;;;;;4963040;28;20042;-83
2022/06/30 05:05:16;;;;;;;1.88;1.55;;;;;;;;;;4965437;28;20671;-83
2022/06/30 05:07:42;;;;;;;4.18;1.60;;;;;;;;;;4965358;28;20063;-83
2022/06/30 05:10:08;;;;;;;4.60;1.40;;;;;;;;;;4968496;28;20035;-83
2022/06/30 05:12:34;;;;;;;2.53;1.55;;;;;;;;;;4964837;28;20062;-83
2022/06/30 05:15:00;;;;;;;6.22;1.58;;;;;;;;;;4965862;28;20049;-84
2022/06/30 05:17:26;;;;;;;1.65;1.23;;;;;;;;;;4965013;28;20038;-84
2022/06/30 05:19:52;;;;;;;7.47;1.83;;;;;;;;;;4967822;28;20029;-84
2022/06/30 05:22:18;;;;;;;2.40;1.00;;;;;;;;;;4969781;28;20226;-84
2022/06/30 05:27:29;;;;;;;2.55;1.13;;;;;;;;;;4971753;28;20058;-83
2022/06/30 05:29:55;;;;;;;1.67;1.33;;;;;;;;;;4982862;28;20019;-82
2022/06/30 05:32:21;;;;;;;0.85;0.65;;;;;;;;;;4963965;28;20032;-84
2022/06/30 05:34:47;;;;;;;1.40;1.08;;;;;;;;;;4984370;28;20030;-83
2022/06/30 05:37:13;;;;;;;1.92;0.90;;;;;;;;;;4967145;28;20023;-82
2022/06/30 05:39:39;;;;;;;1.33;0.90;;;;;;;;;;4967410;28;20038;-82
2022/06/30 05:42:06;;;;;;;2.53;0.85;;;;;;;;;;4963254;28;20423;-84
2022/06/30 05:44:32;;;;;;;1.63;0.90;;;;;;;;;;4965079;28;20551;-82
2022/06/30 05:46:58;;;;;;;2.38;1.00;;;;;;;;;;4965837;28;20065;-83
2022/06/30 05:49:25;;;;;;;3.25;1.38;;;;;;;;;;4979404;28;20430;-83
2022/06/30 05:51:51;;;;;;;3.13;1.25;;;;;;;;;;4968361;28;20023;-82
2022/06/30 05:54:17;;;;;;;4.03;0.90;;;;;;;;;;4971996;28;20034;-82
2022/06/30 05:56:43;;;;;;;1.88;1.20;;;;;;;;;;4958976;28;20041;-84
2022/06/30 05:59:09;;;;;;;1.90;1.35;;;;;;;;;;4961296;28;20038;-82
2022/06/30 06:01:35;;;;;;;1.52;0.88;;;;;;;;;;4963427;28;20024;-82
2022/06/30 06:04:01;;;;;;;1.27;0.90;;;;;;;;;;4967027;28;20574;-83
2022/06/30 06:06:27;;;;;;;1.20;1.08;;;;;;;;;;4978120;28;20093;-83
2022/06/30 06:08:53;;;;;;;8.77;1.17;;;;;;;;;;4956965;28;20027;-82
2022/06/30 06:11:19;;;;;;;2.67;0.98;;;;;;;;;;4966333;28;20039;-82
2022/06/30 06:13:45;;;;;;;1.20;0.93;;;;;;;;;;4965419;28;20027;-83
2022/06/30 06:16:11;;;;;;;1.02;0.82;;;;;;;;;;4962517;28;20058;-81
2022/06/30 06:18:37;;;;;;;2.42;0.85;;;;;;;;;;4953506;28;20033;-82
2022/06/30 06:21:03;;;;;;;6.75;1.38;;;;;;;;;;4977255;28;20034;-82
2022/06/30 06:23:29;;;;;;;2.25;1.20;;;;;;;;;;4966772;28;20453;-83
2022/06/30 06:25:55;;;;;;;2.00;0.80;;;;;;;;;;4966713;28;20065;-82
2022/06/30 06:31:07;;;;;;;1.27;0.82;;;;;;;;;;4964246;28;20033;-82
2022/06/30 06:33:33;;;;;;;1.40;0.68;;;;;;;;;;4956895;28;20034;-83
2022/06/30 06:35:59;;;;;;;5.68;1.27;;;;;;;;;;4959786;28;20035;-83
2022/06/30 06:38:25;;;;;;;4.03;1.70;;;;;;;;;;4946099;28;20023;-84
2022/06/30 06:40:51;;;;;;;4.20;0.98;;;;;;;;;;4969430;28;20077;-84
2022/06/30 06:43:17;;;;;;;2.88;1.20;;;;;;;;;;4966902;28;20532;-83
2022/06/30 06:45:43;;;;;;;0.70;0.60;;;;;;;;;;4962573;28;20035;-83
2022/06/30 06:48:09;;;;;;;1.83;0.82;;;;;;;;;;4956642;28;20037;-82
2022/06/30 06:50:35;;;;;;;1.17;0.93;;;;;;;;;;4966256;28;20057;-83
2022/06/30 06:53:03;;;;;;;2.10;0.82;;;23.70;92.10;;;;;;4966332;28;20062;-81
2022/06/30 06:55:30;;;;;;;0.75;0.47;;;24.70;70.50;;;;;;4959630;28;20125;-82
2022/06/30 06:57:56;;;;;;;4.43;0.95;;;;;;;;;;4957929;28;20035;-84
2022/06/30 07:00:22;;;;;;;1.20;0.47;;;;;;;;;;4967359;28;20524;-83
2022/06/30 07:02:48;;;;;;;1.42;1.10;;;;;;;;;;4964542;28;20046;-83
2022/06/30 07:05:14;;;;;;;4.50;0.85;;;;;;;;;;4965243;28;20529;-81
2022/06/30 07:07:40;;;;;;;1.75;0.40;;;;;;;;;;4960518;28;20142;-84
2022/06/30 07:10:07;;;;;;;0.55;0.30;;;29.80;55.20;;;;;;4963970;28;20034;-83
2022/06/30 07:12:33;;;;;;;4.35;1.48;;;;;;;;;;4966516;28;20027;-84
2022/06/30 07:14:59;;;;;;;2.97;0.60;;;;;;;;;;4980315;28;20126;-84
2022/06/30 07:17:25;;;;;;;;;;;31.20;52.20;;;;;;4957096;28;20173;-85
2022/06/30 07:19:51;;;;;;;0.47;0.25;;;;;;;;;;4964402;28;19910;-84
2022/06/30 07:22:17;;;;;;;1.05;0.60;;;;;;;;;;4978561;28;20054;-85
2022/06/30 07:24:44;;;;;;;3.80;0.40;;;;;;;;;;4966042;28;20031;-85
2022/06/30 07:27:10;;;;;;;1.42;0.28;;;;;;;;;;4962372;28;20409;-84
2022/06/30 07:29:35;;;;;;;;;;;31.90;49.50;;;;;;4962702;28;20027;-84
2022/06/30 07:32:01;;;;;;;0.55;0.30;;;;;;;;;;4962939;28;20433;-82
2022/06/30 07:34:27;;;;;;;;;;;32.70;48.50;;;;;;4963650;28;20535;-82
2022/06/30 07:36:52;;;;;;;1.25;0.30;;;;;;;;;;4974680;28;19918;-84
2022/06/30 07:39:18;;;;;;;;;;;32.90;47.90;;;;;;4966032;28;20035;-83
2022/06/30 07:41:45;;;;;;;1.92;0.30;;;;;;;;;;4960635;28;19922;-83
2022/06/30 07:44:11;;;;;;;3.00;0.32;;;;;;;;;;4980787;28;20051;-84
2022/06/30 07:46:36;;;;;;;;;;;33.60;46.10;;;;;;4960631;28;20030;-82
2022/06/30 07:49:02;;;;;;;1.02;0.30;;;;;;;;;;4961114;28;19987;-81
2022/06/30 07:51:28;;;;;;;;;;;;;;;;;;4978118;28;20027;-80
2022/06/30 07:53:54;;;;;;;2.90;0.35;;;;;;;;;;4964683;28;20060;-81
2022/06/30 07:56:20;;;;;;;0.70;0.50;;;;;;;;;;4963861;28;20046;-82
2022/06/30 07:58:47;;;;;;;1.35;0.50;;;;;;;;;;4959814;28;20599;-81
2022/06/30 08:01:13;;;;;;;1.20;0.60;;;;;;;;;;4977256;28;20198;-84
2022/06/30 08:03:39;;;;;;;2.63;0.68;;;;;;;;;;4964575;28;20069;-84
2022/06/30 08:06:05;;;;;;;3.00;0.65;;;;;;;;;;4983219;28;20038;-81
2022/06/30 08:08:32;;;;;;;2.87;1.73;;;;;;;;;;4959199;28;20035;-83
2022/06/30 08:10:58;;;;;;;7.78;1.13;;;;;;;;;;4966506;28;20889;-83
2022/06/30 08:13:24;;;;;;;4.10;1.03;;;;;;;;;;4955365;28;20031;-83
2022/06/30 08:15:51;;;;;;;1.20;0.63;;;;;;;;;;4966542;28;20081;-82
2022/06/30 08:18:17;;;;;;;1.90;0.80;;;;;;;;;;4957003;28;20038;-83
2022/06/30 08:20:43;;;;;;;0.75;0.40;;;;;;;;;;4962040;28;20050;-83
2022/06/30 08:23:09;;;;;;;1.38;0.57;;;;;;;;;;4965897;28;20046;-84
2022/06/30 08:25:35;;;;;;;6.80;1.52;;;;;;;;;;4963231;28;20026;-84
2022/06/30 08:28:03;;;;;;;1.83;0.60;;;;;;;;;;4954428;28;20027;-81
2022/06/30 08:30:29;;;;;;;5.78;0.60;;;;;;;;;;4965784;28;20039;-82
2022/06/30 08:32:55;;;;;;;1.35;0.50;;;;;;;;;;4961623;28;20031;-82
2022/06/30 08:35:21;;;;;;;2.13;1.20;;;;;;;;;;4980578;28;20448;-82
2022/06/30 08:37:47;;;;;;;2.27;0.93;;;;;;;;;;4956783;28;20364;-83
2022/06/30 08:42:59;;;;;;;3.80;0.70;;;31.10;69.70;;;;;;4962157;28;20408;-84
2022/06/30 08:45:30;;;;;;;0.73;0.40;;;31.80;49.00;;;;;;4963680;28;20070;-83
2022/06/30 08:47:56;;;;;;;2.28;0.63;;;;;;;;;;4958341;28;20038;-83
2022/06/30 08:50:23;;;;;;;1.38;0.68;;;;;;;;;;4965148;28;20030;-83
2022/06/30 08:52:51;;;;;;;7.80;0.70;;;;;;;;;;4960491;28;20042;-85
2022/06/30 08:55:17;;;;;;;7.53;0.75;;;;;;;;;;4964038;28;20050;-84
2022/06/30 08:57:44;;;;;;;2.42;0.40;;;;;;;;;;4962613;28;20081;-84
2022/06/30 09:00:11;;;;;;;2.38;0.70;;;34.60;44.80;;;;;;4969128;28;20029;-83
2022/06/30 09:02:38;;;;;;;2.95;0.40;;;;;;;;;;4996723;28;20046;-82
2022/06/30 09:05:04;;;;;;;0.65;0.50;;;;;;;;;;4969033;28;20105;-83
2022/06/30 09:07:30;;;;;;;1.92;0.55;;;;;;;;;;4959873;28;20065;-83
2022/06/30 09:09:56;;;;;;;1.65;1.00;;;;;;;;;;4964697;28;20130;-83
2022/06/30 09:12:22;;;;;;;1.27;0.47;;;;;;;;;;4967858;28;20034;-84
2022/06/30 09:14:49;;;;;;;2.00;1.13;;;35.80;43.10;;;;;;4967744;28;20030;-82
2022/06/30 09:17:17;;;;;;;1.77;1.23;;;36.20;42.10;;;;;;4977179;28;20042;-82
2022/06/30 09:19:57;;;;;;;1.60;0.57;;;36.00;42.70;;;;;;4968653;28;20102;-85
2022/06/30 09:22:29;;;;;;;1.27;0.60;;;36.30;41.90;;;;;;4966085;28;20042;-85
2022/06/30 09:25:10;;;;;;;4.03;1.15;;;36.30;42.50;;;;;;4965354;28;20037;-85
2022/06/30 09:27:40;;;;;;;6.63;0.80;;;36.30;41.90;;;;;;4988963;28;20519;-84
2022/06/30 09:30:09;;;;;;;5.32;0.85;;;;;;;;;;4968056;28;20081;-83
2022/06/30 09:32:56;;;;;;;10.40;0.60;;;36.90;41.70;;;;;;4967870;28;20031;-82
2022/06/30 09:35:23;;;;;;;7.43;0.50;;;;;;;;;;4981973;28;20034;-84
2022/06/30 09:38:08;;;;;;;1.77;0.98;;;38.00;41.00;;;;;;4961752;28;20146;-85
2022/06/30 09:40:34;;;;;;;1.75;0.80;;;;;;;;;;4965041;28;20660;-84
2022/06/30 09:43:01;;;;;;;1.17;0.65;;;;;;;;;;4963768;28;20169;-85
2022/06/30 09:45:41;;;;;;;0.85;0.45;;;37.50;39.80;;;;;;4967592;28;20558;-84
2022/06/30 09:48:09;;;;;;;4.43;0.90;;;37.20;40.20;;;;;;4974437;28;20042;-84
2022/06/30 09:50:35;;;;;;;2.25;0.60;;;;;;;;;;4965607;28;20033;-84
2022/06/30 09:53:04;;;;;;;3.05;0.50;;;;;;;;;;4967482;28;20081;-83
2022/06/30 09:55:47;;;;;;;4.20;0.85;;;36.90;40.70;;;;;;4996790;28;20026;-83
2022/06/30 09:58:34;;;;;;;1.17;0.73;;;36.00;41.80;;;;;;4958209;28;20646;-83
2022/06/30 10:01:01;;;;;;;1.98;1.00;;;;;;;;;;4966787;28;20031;-83
2022/06/30 10:03:27;;;;;;;5.40;1.08;;;;;;;;;;4967947;28;20045;-82
2022/06/30 10:06:09;;;;;;;2.75;0.68;;;;;;;;;;4964897;28;20027;-86
2022/06/30 10:08:35;;;;;;;3.72;1.80;;;;;;;;;;4960452;28;20038;-87
2022/06/30 10:11:02;;;;;;;2.38;0.60;;;;;;;;;;4966641;28;20604;-85
2022/06/30 10:13:28;;;;;;;2.63;0.98;;;;;;;;;;4964538;28;20034;-85
2022/06/30 10:15:55;;;;;;;3.90;0.52;;;36.20;42.80;;;;;;4966205;28;20022;-84
2022/06/30 10:18:24;;;;;;;5.65;0.60;;;;;;;;;;4962552;28;20050;-83
2022/06/30 10:20:50;;;;;;;4.35;0.63;;;;;;;;;;4961996;28;20070;-83
2022/06/30 10:23:22;;;;;;;1.63;0.80;;;35.60;43.10;;;;;;4968209;28;20047;-85
2022/06/30 10:25:48;;;;;;;2.03;1.10;;;;;;;;;;4964192;28;20079;-83
2022/06/30 10:28:19;;;;;;;1.30;0.90;;;36.20;43.00;;;;;;4966935;28;20126;-87
2022/06/30 10:30:55;;;;;;;2.67;0.60;;;36.30;43.20;;;;;;4965969;28;20031;-84
2022/06/30 10:33:24;;;;;;;3.70;0.77;;;;;;;;;;4963023;28;20038;-85
2022/06/30 10:36:25;;;;;;;8.73;1.60;;;36.80;41.90;;;;;;4970062;28;20125;-85
2022/06/30 10:39:15;;;;;;;4.20;0.90;;;37.40;45.10;;;;;;4962199;28;20054;-86
2022/06/30 10:41:45;;;;;;;1.27;0.70;;;36.10;42.40;;;;;;4965951;28;20190;-81
2022/06/30 10:44:19;;;;;;;3.10;1.67;;;;;;;;;;4973057;28;20058;-81
2022/06/30 10:46:45;;;;;;;1.42;0.60;;;;;;;;;;4970722;28;20205;-81
2022/06/30 10:49:12;;;;;;;1.27;0.60;;;;;;;;;;4963779;28;20121;-82
2022/06/30 10:51:38;;;;;;;4.53;0.70;;;;;;;;;;4967165;28;20038;-83
2022/06/30 10:54:04;;;;;;;;;;;;;;;;;;4976230;28;20039;-82
2022/06/30 10:56:48;;;;;;;2.72;1.10;;;36.30;42.70;;;;;;4979800;28;19968;-84
2022/06/30 10:59:15;;;;;;;6.68;1.42;;;;;;;;;;4964433;28;20035;-83
2022/06/30 11:02:03;;;;;;;1.50;0.90;;;35.40;42.20;;;;;;4972967;28;20054;-82
2022/06/30 11:04:28;;;;;;;1.48;0.88;;;;;;;;;;4969698;28;20640;-83
2022/06/30 11:06:57;;;;;;;1.15;0.85;;;35.20;44.30;;;;;;4963946;28;20039;-82
2022/06/30 11:09:44;;;;;;;4.57;0.52;;;34.50;45.70;;;;;;4980312;28;20378;-83
2022/06/30 11:12:11;;;;;;;1.45;0.60;;;;;;;;;;4964379;28;20041;-81
2022/06/30 11:14:37;;;;;;;1.10;0.60;;;;;;;;;;4966727;28;20189;-83
2022/06/30 11:17:21;;;;;;;1.65;0.77;;;33.10;46.40;;;;;;4962866;28;20526;-81
2022/06/30 11:19:47;;;;;;;4.00;1.77;;;;;;;;;;4968746;28;20035;-81
2022/06/30 11:22:18;;;;;;;5.82;1.50;;;;;;;;;;4967167;28;20523;-82
2022/06/30 11:24:47;;;;;;;1.00;0.70;;;31.60;49.30;;;;;;4966391;28;20043;-82
2022/06/30 11:27:24;;;;;;;1.75;0.80;;;;;;;;;;4958880;28;21711;-81
2022/06/30 11:29:57;;;;;;;1.02;0.70;;;;;;;;;;4976971;28;20785;-81
2022/06/30 11:32:24;;;;;;;2.10;1.13;;;;;;;;;;4966546;28;20074;-82
2022/06/30 11:34:50;;;;;;;1.55;1.00;;;;;;;;;;4969749;28;20034;-81
2022/06/30 11:37:26;;;;;;;1.92;0.88;;;;;;;;;;4960923;28;20037;-81
2022/06/30 11:40:13;;;;;;;2.28;0.85;;;;;;;;;;4966903;28;20058;-81
2022/06/30 11:42:39;;;;;;;2.72;1.30;;;;;;;;;;4974500;28;20415;-81
2022/06/30 11:45:23;;;;;;;2.40;0.90;;;29.60;52.90;;;;;;4966595;28;20042;-81
2022/06/30 11:47:56;;;;;;;10.02;1.90;;;;;;;;;;4954818;28;20043;-81
2022/06/30 11:50:24;;;;;;;1.52;0.80;;;29.80;52.80;;;;;;4967621;28;20043;-80
2022/06/30 11:52:56;;;;;;;0.82;0.60;;;30.00;69.50;;;;;;4963341;28;20022;-80
2022/06/30 11:55:26;;;;;;;1.55;0.70;;;;;;;;;;4968957;28;20027;-80
2022/06/30 11:57:52;;;;;;;1.52;0.75;;;;;;;;;;4961478;28;20033;-81
2022/06/30 12:00:30;;;;;;;1.80;1.07;;;;;;;;;;4974344;28;20669;-81
2022/06/30 12:02:56;;;;;;;1.65;0.77;;;;;;;;;;4966076;28;20348;-80
2022/06/30 12:05:23;;;;;;;2.53;0.70;;;;;;;;;;4962601;28;20030;-80
2022/06/30 12:07:49;;;;;;;1.50;1.00;;;;;;;;;;4961373;28;20053;-80
2022/06/30 12:10:18;;;;;;;1.95;1.08;;;;;;;;;;4968411;28;20030;-81
2022/06/30 12:12:44;;;;;;;1.13;1.02;;;;;;;;;;4962915;28;20400;-80
2022/06/30 12:15:15;;;;;;;4.97;1.10;;;29.80;52.70;;;;;;4966327;28;20110;-80
2022/06/30 12:17:47;;;;;;;3.13;0.77;;;29.70;53.20;;;;;;4963410;28;20696;-80
2022/06/30 12:20:14;;;;;;;3.92;0.95;;;;;;;;;;4967844;28;20058;-80
2022/06/30 12:22:42;;;;;;;1.10;0.90;;;29.60;52.60;;;;;;4972967;28;20038;-80
2022/06/30 12:25:08;;;;;;;1.00;0.80;;;;;;;;;;4966818;28;20038;-80
2022/06/30 12:27:38;;;;;;;1.40;1.10;;;;;;;;;;4968033;28;20147;-81
2022/06/30 12:30:10;;;;;;;1.35;0.73;;;29.30;53.20;;;;;;4963034;28;20038;-81
2022/06/30 12:32:36;;;;;;;3.47;1.52;;;;;;;;;;4958957;28;20023;-80
2022/06/30 12:35:07;;;;;;;1.67;0.88;;;;;;;;;;4966449;28;20030;-80
2022/06/30 12:37:41;;;;;;;1.35;0.80;;;29.40;52.70;;;;;;4957404;28;20050;-81
2022/06/30 12:40:09;;;;;;;2.33;1.20;;;;;;;;;;4963534;28;20058;-80
2022/06/30 12:42:42;;;;;;;0.75;0.70;;;;;;;;;;4965132;28;20054;-82
2022/06/30 12:45:39;;;;;;;4.68;0.90;;;29.00;52.90;;;;;;4971931;28;20043;-84
2022/06/30 12:48:06;;;;;;;1.98;0.95;;;;;;;;;;4959877;28;20039;-91
2022/06/30 12:50:32;;;;;;;;;;;29.10;53.30;;;;;;4966723;28;20165;-89
2022/06/30 12:53:17;;;;;;;4.18;0.90;;;28.90;54.40;;;;;;4977325;28;20004;-86
2022/06/30 12:56:22;;;;;;;1.13;0.90;;;;;;;;;;4977920;28;20038;-88
2022/06/30 12:59:01;;;;;;;1.10;0.70;;;28.40;56.40;;;;;;4980451;28;20061;-87
2022/06/30 13:01:30;;;;;;;6.20;0.65;;;;;;;;;;4981841;28;20042;-90
2022/06/30 13:03:58;;;;;;;2.10;0.82;;;;;;;;;;4980909;28;20034;-92
2022/06/30 13:06:26;;;;;;;3.35;0.95;;;;;;;;;;4981598;28;20038;-88
2022/06/30 13:08:52;;;;;;;1.58;0.73;;;;;;;;;;4978824;28;20041;-88
2022/06/30 13:11:23;;;;;;;1.57;0.90;;;;;;;;;;4982839;28;20053;-92
2022/06/30 13:13:49;;;;;;;6.38;0.75;;;;;;;;;;4984069;28;20042;-90
2022/06/30 13:16:17;;;;;;;2.85;0.77;;;;;;;;;;4992174;28;20026;-90
2022/06/30 13:18:43;;;;;;;;;;;;;;;;;;4982503;28;20034;-90
2022/06/30 13:21:09;;;;;;;0.30;0.28;;;;;;;;;;4983374;28;19952;-91
2022/06/30 13:23:35;;;;;;;0.40;0.40;;;;;;;;;;4995898;28;20557;-90
2022/06/30 13:26:01;;;;;;;6.50;0.75;;;;;;;;;;4988322;28;20030;-90
2022/06/30 13:28:27;;;;;;;1.33;0.60;;;;;;;;;;4985898;28;20145;-90
2022/06/30 13:30:54;;;;;;;5.43;1.20;;;;;;;;;;4989148;28;20022;-90
2022/06/30 13:33:20;;;;;;;3.05;0.70;;;;;;;;;;4972436;28;20078;-91
2022/06/30 13:35:46;;;;;;;3.88;0.80;;;;;;;;;;4975989;28;20059;-91
2022/06/30 13:38:11;;;;;;;3.00;1.25;;;;;;;;;;4972059;28;20061;-89
2022/06/30 13:40:38;;;;;;;5.10;1.48;;;;;;;;;;4958997;28;20823;-90
2022/06/30 13:43:04;;;;;;;0.77;0.45;;;;;;;;;;4970839;28;20133;-94
2022/06/30 13:45:30;;;;;;;4.80;0.80;;;;;;;;;;4974886;28;20366;-92
2022/06/30 13:47:56;;;;;;;1.98;0.80;;;;;;;;;;4965205;28;20038;-92
2022/06/30 13:50:22;;;;;;;1.23;0.60;;;;;;;;;;4970345;28;20031;-92
2022/06/30 13:52:48;;;;;;;2.80;0.28;;;;;;;;;;4964201;28;20023;-89
2022/06/30 13:55:14;;;;;;;1.17;0.57;;;;;;;;;;4972232;28;20088;-90
2022/06/30 13:57:40;;;;;;;2.90;0.50;;;;;;;;;;4971253;28;20796;-91
2022/06/30 14:00:07;;;;;;;2.88;0.65;;;;;;;;;;4974600;28;20034;-92
2022/06/30 14:02:33;;;;;;;0.63;0.52;;;;;;;;;;4971984;28;20066;-93
2022/06/30 14:04:59;;;;;;;0.38;0.35;;;;;;;;;;4974530;28;20070;-93
2022/06/30 14:07:26;;;;;;;0.65;0.63;;;20.80;90.80;;;;;;4963679;28;20513;-90
2022/06/30 14:09:53;;;;;;;0.50;0.50;;;;;;;;;;4972438;28;20027;-90
2022/06/30 14:12:19;;;;;;;1.10;0.75;;;;;;;;;;4965948;28;20031;-91
2022/06/30 14:14:45;;;;;;;1.13;0.60;;;;;;;;;;4990116;28;20030;-93
2022/06/30 14:17:11;;;;;;;0.30;0.30;;;;;;;;;;4977026;28;20396;-92
2022/06/30 14:19:37;;;;;;;0.73;0.52;;;;;;;;;;4980054;28;20034;-92
2022/06/30 14:22:03;;;;;;;0.30;0.30;;;;;;;;;;4977038;28;20019;-91
2022/06/30 14:24:30;;;;;;;1.15;0.73;;;;;;;;;;4987951;28;20062;-91
2022/06/30 14:26:56;;;;;;;0.28;0.20;;;;;;;;;;4964362;28;20028;-91
2022/06/30 14:29:22;;;;;;;0.50;0.50;;;;;;;;;;4964304;28;20035;-92
2022/06/30 14:31:49;;;;;;;0.35;0.32;;;;;;;;;;4962467;28;20026;-92
2022/06/30 14:34:14;;;;;;;0.57;0.30;;;;;;;;;;4977679;28;20031;-93
2022/06/30 14:36:41;;;;;;;1.05;0.80;;;;;;;;;;4969247;28;20067;-92
2022/06/30 14:39:07;;;;;;;0.50;0.50;;;;;;;;;;4965753;28;20534;-93
2022/06/30 14:44:17;;;;;;;2.78;0.47;;;;;;;;;;4982262;28;20069;-92
2022/06/30 14:46:43;;;;;;;0.68;0.30;;;;;;;;;;4966300;28;20034;-93
2022/06/30 14:49:09;;;;;;;0.28;0.28;;;;;;;;;;4977048;28;20031;-93